Time;durP1;ratioP1;P1;durP2;ratioP2;P2;SDS_P1;SDS_P2;PMS_P1;PMS_P2;Temp;Humidity;BMP_temperature;BMP_pressure;BME280_temperature;BME280_humidity;BME280_pressure;Samples;Min_cycle;Max_cycle;Signal;HPM_P1;HPM_P2
2024/01/30 00:01:15;;;;;;;0.50;0.50;;;;;;;1.59;63.07;96778.84;5048318;28;20175;-69
2024/01/30 00:03:41;;;;;;;0.87;0.87;;;;;;;1.55;63.02;96771.41;5048084;28;20672;-69
2024/01/30 00:06:08;;;;;;;0.60;0.60;;;;;;;1.53;62.32;96761.13;5048224;28;20769;-69
2024/01/30 00:08:34;;;;;;;0.60;0.60;;;;;;;1.56;63.01;96788.63;5032910;28;20316;-69
2024/01/30 00:10:59;;;;;;;0.60;0.60;;;;;;;1.50;62.72;96766.53;5034063;28;20266;-69
2024/01/30 00:13:24;;;;;;;0.50;0.50;;;;;;;1.54;63.00;96786.16;5035609;28;20183;-69
2024/01/30 00:15:50;;;;;;;0.50;0.50;;;;;;;1.43;63.14;96788.66;5037677;28;20176;-69
2024/01/30 00:18:16;;;;;;;0.50;0.50;;;;;;;1.50;62.70;96789.88;5047537;28;20660;-69
2024/01/30 00:20:42;;;;;;;0.50;0.50;;;;;;;1.40;63.44;96796.63;5053793;28;20182;-69
2024/01/30 00:23:08;;;;;;;0.60;0.60;;;;;;;1.38;63.34;96783.78;5053240;28;20227;-69
2024/01/30 00:25:34;;;;;;;0.50;0.50;;;;;;;1.41;63.44;96790.50;5040614;28;20194;-69
2024/01/30 00:27:59;;;;;;;0.50;0.50;;;;;;;1.36;63.29;96790.03;5053707;28;20178;-69
2024/01/30 00:30:25;;;;;;;0.50;0.50;;;;;;;1.28;63.63;96785.38;5045391;28;20171;-69
2024/01/30 00:32:50;;;;;;;1.00;1.00;;;;;;;1.31;64.35;96784.31;5033544;28;20171;-69
2024/01/30 00:35:16;;;;;;;1.37;1.37;;;;;;;1.35;64.17;96785.75;5037317;28;20260;-69
2024/01/30 00:37:41;;;;;;;0.50;0.50;;;;;;;1.29;63.74;96783.59;5034007;28;20183;-69
2024/01/30 00:40:07;;;;;;;0.50;0.50;;;;;;;1.21;65.28;96786.69;5052987;28;20187;-69
2024/01/30 00:42:33;;;;;;;0.50;0.50;;;;;;;1.15;64.75;96768.97;5043021;28;20645;-69
2024/01/30 00:44:58;;;;;;;0.50;0.50;;;;;;;1.06;65.79;96767.00;5040884;28;20221;-69
2024/01/30 00:47:24;;;;;;;0.60;0.60;;;;;;;1.08;65.31;96773.75;5052392;28;20713;-69
2024/01/30 00:49:49;;;;;;;0.50;0.50;;;;;;;0.95;66.04;96774.72;5053053;28;20175;-69
2024/01/30 00:52:15;;;;;;;0.50;0.50;;;;;;;0.87;65.73;96764.84;5040146;28;20230;-69
2024/01/30 00:54:41;;;;;;;0.80;0.80;;;;;;;0.95;65.73;96778.09;5037018;28;20620;-69
2024/01/30 00:57:07;;;;;;;0.50;0.50;;;;;;;1.00;65.39;96778.63;5052829;28;20262;-69
2024/01/30 00:59:32;;;;;;;0.50;0.50;;;;;;;0.99;66.44;96779.56;5051287;28;20185;-69
2024/01/30 01:01:57;;;;;;;0.50;0.50;;;;;;;0.96;65.68;96779.78;5052230;28;20179;-69
2024/01/30 01:04:23;;;;;;;0.60;0.60;;;;;;;0.97;65.56;96780.59;5051248;28;20189;-69
2024/01/30 01:06:48;;;;;;;0.50;0.50;;;;;;;0.92;65.00;96757.59;5033453;28;20260;-69
2024/01/30 01:09:14;;;;;;;0.60;0.60;;;;;;;1.01;64.98;96777.72;5037776;28;20175;-69
2024/01/30 01:11:39;;;;;;;0.50;0.50;;;;;;;1.13;64.94;96784.63;5042362;28;20182;-69
2024/01/30 01:14:05;;;;;;;0.50;0.50;;;;;;;1.00;64.46;96760.50;5037257;28;20186;-69
2024/01/30 01:16:30;;;;;;;0.50;0.50;;;;;;;1.07;64.57;96777.28;5045302;28;20172;-69
2024/01/30 01:18:56;;;;;;;0.50;0.50;;;;;;;1.18;64.65;96786.09;5032732;28;20652;-69
2024/01/30 01:21:21;;;;;;;1.63;1.53;;;;;;;0.99;64.79;96781.34;5032044;28;20194;-69
2024/01/30 01:23:48;;;;;;;0.50;0.50;;;;;;;0.93;64.82;96777.41;5049587;28;20219;-69
2024/01/30 01:26:13;;;;;;;0.50;0.50;;;;;;;1.04;64.99;96782.66;5052401;28;20195;-69
2024/01/30 01:28:41;;;;;;;0.50;0.50;;;;;;;0.98;66.24;96782.25;5050477;28;20183;-69
2024/01/30 01:31:06;;;;;;;0.50;0.50;;;;;;;0.96;65.93;96778.94;5048873;28;20214;-69
2024/01/30 01:33:33;;;;;;;0.50;0.50;;;;;;;1.04;65.06;96776.66;5043080;28;20198;-69
2024/01/30 01:35:59;;;;;;;1.43;1.43;;;;;;;1.05;65.36;96784.34;5052370;28;20167;-70
2024/01/30 01:38:24;;;;;;;0.60;0.60;;;;;;;0.99;64.96;96784.75;5052161;28;20213;-69
2024/01/30 01:40:51;;;;;;;0.70;0.70;;;;;;;0.90;65.52;96769.00;5045538;28;20211;-69
2024/01/30 01:43:16;;;;;;;0.60;0.60;;;;;;;1.03;64.86;96788.81;5040909;28;20602;-69
2024/01/30 01:45:42;;;;;;;0.50;0.50;;;;;;;1.17;63.93;96785.25;5052246;28;20240;-69
2024/01/30 01:48:09;;;;;;;0.40;0.40;;;;;;;1.10;63.77;96756.34;5036408;28;20184;-71
2024/01/30 01:50:36;;;;;;;0.50;0.50;;;;;;;1.20;63.64;96779.03;5051800;28;20171;-69
2024/01/30 01:53:03;;;;;;;0.50;0.50;;;;;;;0.96;63.76;96750.41;5051986;28;20174;-69
2024/01/30 01:55:30;;;;;;;1.07;1.07;;;;;;;1.13;63.89;96787.22;5032564;28;20195;-69
2024/01/30 01:57:56;;;;;;;0.50;0.50;;;;;;;1.18;63.67;96784.34;5037417;28;20226;-69
2024/01/30 02:00:23;;;;;;;0.50;0.50;;;;;;;1.10;64.09;96782.28;5048182;28;20244;-69
2024/01/30 02:02:49;;;;;;;0.50;0.50;;;;;;;1.05;63.52;96766.19;5032952;28;20226;-69
2024/01/30 02:05:16;;;;;;;1.67;1.60;;;;;;;1.21;63.66;96781.50;5032921;28;20188;-69
2024/01/30 02:07:42;;;;;;;0.80;0.80;;;;;;;1.02;62.94;96771.59;5043458;28;20202;-69
2024/01/30 02:10:09;;;;;;;0.50;0.50;;;;;;;1.21;63.02;96796.28;5049929;28;20197;-69
2024/01/30 02:12:35;;;;;;;0.50;0.50;;;;;;;1.22;63.21;96800.50;5046252;28;20262;-69
2024/01/30 02:15:01;;;;;;;0.50;0.50;;;;;;;1.18;63.07;96796.47;5049964;28;20622;-69
2024/01/30 02:17:26;;;;;;;0.90;0.90;;;;;;;1.21;63.17;96788.50;5033300;28;20176;-69
2024/01/30 02:19:52;;;;;;;0.50;0.50;;;;;;;1.25;62.38;96797.69;5032790;28;20203;-69
2024/01/30 02:22:19;;;;;;;0.50;0.50;;;;;;;1.41;62.17;96799.13;5043989;28;20553;-70
2024/01/30 02:24:44;;;;;;;0.50;0.50;;;;;;;1.28;61.84;96794.91;5051122;28;20570;-70
2024/01/30 02:27:10;;;;;;;0.50;0.50;;;;;;;1.29;62.22;96789.63;5049343;28;20202;-70
2024/01/30 02:29:36;;;;;;;0.50;0.50;;;;;;;1.40;61.95;96796.63;5041975;28;20191;-70
2024/01/30 02:32:01;;;;;;;1.20;1.20;;;;;;;1.42;61.54;96792.19;5032110;28;20184;-70
2024/01/30 02:34:27;;;;;;;0.67;0.67;;;;;;;1.36;61.55;96782.22;5044025;28;20206;-69
2024/01/30 02:36:52;;;;;;;0.50;0.50;;;;;;;1.41;62.30;96780.97;5046105;28;20183;-70
2024/01/30 02:39:18;;;;;;;0.50;0.50;;;;;;;1.45;62.36;96785.03;5031124;28;20191;-70
2024/01/30 02:41:45;;;;;;;0.60;0.60;;;;;;;1.52;61.16;96793.19;5034482;28;20706;-70
2024/01/30 02:44:10;;;;;;;0.60;0.60;;;;;;;1.63;61.30;96790.69;5049359;28;20253;-70
2024/01/30 02:46:36;;;;;;;1.63;1.27;;;;;;;1.44;60.69;96769.56;5032872;28;20207;-70
2024/01/30 02:49:01;;;;;;;1.03;0.93;;;;;;;1.40;61.67;96784.50;5051132;28;20174;-69
2024/01/30 02:51:27;;;;;;;0.40;0.40;;;;;;;1.47;62.01;96785.72;5036479;28;20175;-70
2024/01/30 02:53:52;;;;;;;0.50;0.50;;;;;;;1.50;61.95;96793.31;5049194;28;20183;-70
2024/01/30 02:56:18;;;;;;;0.70;0.70;;;;;;;1.43;61.16;96791.25;5050516;28;20213;-69
2024/01/30 02:58:43;;;;;;;0.50;0.50;;;;;;;1.49;61.52;96796.00;5038722;28;20171;-70
2024/01/30 03:01:09;;;;;;;2.73;2.63;;;;;;;1.62;60.96;96788.19;5032107;28;20268;-70
2024/01/30 03:03:35;;;;;;;1.03;1.03;;;;;;;1.62;61.19;96793.38;5030768;28;20215;-70
2024/01/30 03:06:01;;;;;;;2.83;1.23;;;;;;;1.57;60.58;96782.47;5031813;28;20191;-70
2024/01/30 03:08:27;;;;;;;0.50;0.50;;;;;;;1.42;61.24;96771.41;5045974;28;20194;-70
2024/01/30 03:10:52;;;;;;;0.60;0.60;;;;;;;1.64;60.78;96781.97;5032759;28;20180;-70
2024/01/30 03:13:18;;;;;;;0.50;0.50;;;;;;;1.66;60.39;96780.06;5039858;28;20209;-69
2024/01/30 03:15:43;;;;;;;0.50;0.50;;;;;;;1.72;60.54;96790.03;5041231;28;20218;-70
2024/01/30 03:18:09;;;;;;;0.50;0.50;;;;;;;1.69;60.99;96781.63;5028823;28;20241;-69
2024/01/30 03:20:34;;;;;;;6.17;1.37;;;;;;;1.50;60.49;96784.69;5047274;28;20217;-70
2024/01/30 03:23:00;;;;;;;0.50;0.50;;;;;;;1.40;61.30;96778.47;5012874;28;20251;-70
2024/01/30 03:25:25;;;;;;;1.67;0.70;;;;;;;1.40;61.25;96781.06;5030699;28;20916;-69
2024/01/30 03:27:51;;;;;;;1.33;0.70;;;;;;;1.52;60.72;96782.81;5031375;28;20225;-70
2024/01/30 03:30:17;;;;;;;1.03;0.97;;;;;;;1.48;60.17;96778.75;5030415;28;20614;-70
2024/01/30 03:32:43;;;;;;;0.90;0.90;;;;;;;1.60;59.17;96782.28;5031622;28;20194;-69
2024/01/30 03:35:09;;;;;;;2.63;1.03;;;;;;;1.52;58.90;96768.06;5012651;28;20267;-70
2024/01/30 03:37:35;;;;;;;0.73;0.73;;;;;;;1.45;59.41;96774.66;5045137;28;20261;-69
2024/01/30 03:40:02;;;;;;;1.50;1.13;;;;;;;1.51;58.98;96775.97;5050009;28;20179;-70
2024/01/30 03:42:27;;;;;;;0.80;0.80;;;;;;;1.47;59.21;96770.16;5044303;28;20187;-70
2024/01/30 03:44:53;;;;;;;0.63;0.63;;;;;;;1.42;58.75;96764.47;5032502;28;20564;-70
2024/01/30 03:47:20;;;;;;;0.50;0.50;;;;;;;1.35;59.45;96754.63;5035607;28;20199;-70
2024/01/30 03:49:45;;;;;;;0.60;0.60;;;;;;;1.44;60.12;96772.16;5034389;28;20199;-70
2024/01/30 03:52:11;;;;;;;0.50;0.50;;;;;;;1.47;58.92;96774.53;5038165;28;20625;-70
2024/01/30 03:54:36;;;;;;;0.53;0.53;;;;;;;1.46;58.85;96768.53;5042109;28;20222;-69
2024/01/30 03:57:02;;;;;;;0.60;0.60;;;;;;;1.20;58.89;96745.34;5037665;28;20527;-70
2024/01/30 03:59:27;;;;;;;0.60;0.60;;;;;;;1.24;58.62;96768.34;5042959;28;20313;-70
2024/01/30 04:01:53;;;;;;;0.90;0.90;;;;;;;1.36;58.83;96766.66;5016468;28;20211;-70
2024/01/30 04:04:19;;;;;;;0.50;0.50;;;;;;;1.32;58.86;96770.41;5051844;28;20183;-69
2024/01/30 04:06:45;;;;;;;0.73;0.73;;;;;;;1.26;59.25;96766.47;5054122;28;20214;-71
2024/01/30 04:09:11;;;;;;;0.70;0.70;;;;;;;1.33;58.52;96766.88;5054241;28;20249;-71
2024/01/30 04:11:36;;;;;;;0.63;0.63;;;;;;;1.22;59.21;96762.41;5053889;28;20660;-68
2024/01/30 04:14:02;;;;;;;0.70;0.70;;;;;;;1.22;58.82;96761.59;5053784;28;20198;-69
2024/01/30 04:16:27;;;;;;;0.70;0.70;;;;;;;1.25;59.56;96766.56;5036183;28;20172;-68
2024/01/30 04:18:53;;;;;;;0.60;0.60;;;;;;;1.20;58.84;96742.75;5050401;28;20264;-68
2024/01/30 04:21:20;;;;;;;0.50;0.50;;;;;;;1.23;59.05;96755.47;5053709;28;20183;-68
2024/01/30 04:23:46;;;;;;;0.70;0.70;;;;;;;1.20;59.25;96760.88;5053453;28;20254;-68
2024/01/30 04:26:12;;;;;;;0.60;0.60;;;;;;;1.09;59.21;96762.47;5053457;28;20191;-68
2024/01/30 04:28:37;;;;;;;3.80;1.03;;;;;;;1.07;60.11;96766.91;5053536;28;20182;-68
2024/01/30 04:31:03;;;;;;;0.60;0.60;;;;;;;0.95;60.04;96769.53;5053444;28;20167;-69
2024/01/30 04:33:28;;;;;;;0.63;0.63;;;;;;;0.84;60.89;96769.41;5046254;28;20624;-69
2024/01/30 04:35:54;;;;;;;0.60;0.60;;;;;;;0.92;59.89;96773.16;5042168;28;20175;-68
2024/01/30 04:38:19;;;;;;;0.50;0.50;;;;;;;0.94;60.47;96767.88;5053344;28;20594;-69
2024/01/30 04:40:45;;;;;;;0.50;0.50;;;;;;;0.94;60.83;96770.47;5041335;28;20238;-69
2024/01/30 04:43:10;;;;;;;0.50;0.50;;;;;;;0.81;60.01;96762.66;5033439;28;20549;-70
2024/01/30 04:45:36;;;;;;;1.87;0.97;;;;;;;0.86;60.27;96777.94;5033680;28;20555;-69
2024/01/30 04:48:01;;;;;;;0.60;0.60;;;;;;;1.00;60.33;96783.81;5033430;28;20211;-68
2024/01/30 04:50:27;;;;;;;0.50;0.50;;;;;;;1.06;59.59;96783.41;5042202;28;20187;-70
2024/01/30 04:52:52;;;;;;;0.50;0.50;;;;;;;0.96;60.67;96789.31;5040652;28;20636;-69
2024/01/30 04:55:18;;;;;;;0.50;0.50;;;;;;;0.97;60.71;96799.59;5048442;28;20382;-70
2024/01/30 04:57:43;;;;;;;0.50;0.50;;;;;;;0.93;61.86;96795.56;5032406;28;20668;-70
2024/01/30 05:00:09;;;;;;;0.60;0.60;;;;;;;0.97;60.76;96794.41;5034027;28;20727;-70
2024/01/30 05:02:35;;;;;;;0.60;0.60;;;;;;;1.06;60.37;96795.53;5032121;28;20199;-69
2024/01/30 05:05:00;;;;;;;0.77;0.77;;;;;;;0.95;61.16;96798.03;5044143;28;20175;-71
2024/01/30 05:07:26;;;;;;;0.87;0.87;;;;;;;0.86;60.70;96776.16;5050012;28;20218;-69
2024/01/30 05:09:51;;;;;;;0.57;0.57;;;;;;;1.10;60.28;96797.81;5048876;28;20183;-69
2024/01/30 05:12:17;;;;;;;0.50;0.50;;;;;;;0.98;60.95;96797.81;5033027;28;20188;-69
2024/01/30 05:14:42;;;;;;;1.73;1.43;;;;;;;1.07;61.43;96798.03;5033224;28;20179;-69
2024/01/30 05:17:10;;;;;;;0.57;0.57;;;;;;;1.11;61.00;96802.09;5033873;28;20262;-69
2024/01/30 05:19:35;;;;;;;0.60;0.60;;;;;;;1.07;61.27;96799.78;5034044;28;20286;-69
2024/01/30 05:22:01;;;;;;;0.50;0.50;;;;;;;1.04;60.94;96800.81;5033651;28;20187;-69
2024/01/30 05:24:26;;;;;;;0.50;0.50;;;;;;;0.85;61.12;96784.88;5032839;28;20246;-69
2024/01/30 05:26:51;;;;;;;0.50;0.50;;;;;;;0.93;62.05;96805.09;5040630;28;20211;-69
2024/01/30 05:29:17;;;;;;;0.60;0.60;;;;;;;0.72;62.32;96795.22;5032645;28;20180;-69
2024/01/30 05:31:42;;;;;;;0.67;0.67;;;;;;;0.82;62.22;96805.81;5034344;28;20246;-69
2024/01/30 05:34:08;;;;;;;0.77;0.77;;;;;;;0.77;61.85;96802.69;5044404;28;20185;-70
2024/01/30 05:36:34;;;;;;;0.50;0.50;;;;;;;0.65;63.00;96793.97;5032778;28;20171;-69
2024/01/30 05:39:00;;;;;;;0.57;0.57;;;;;;;0.73;62.65;96796.88;5032288;28;20190;-69
2024/01/30 05:41:25;;;;;;;1.73;1.50;;;;;;;0.76;62.34;96806.22;5043205;28;20182;-70
2024/01/30 05:43:51;;;;;;;0.80;0.80;;;;;;;0.71;62.83;96797.91;5052163;28;20682;-69
2024/01/30 05:46:16;;;;;;;4.13;2.73;;;;;;;0.57;61.92;96785.06;5051854;28;20195;-69
2024/01/30 05:48:42;;;;;;;0.60;0.60;;;;;;;0.64;62.08;96781.94;5051985;28;20667;-69
2024/01/30 05:51:08;;;;;;;0.70;0.70;;;;;;;0.60;63.14;96803.00;5050470;28;20175;-70
2024/01/30 05:53:34;;;;;;;0.50;0.50;;;;;;;0.83;62.09;96799.69;5051746;28;20179;-70
2024/01/30 05:56:01;;;;;;;0.53;0.53;;;;;;;0.83;61.28;96791.91;5043676;28;20221;-70
2024/01/30 05:58:27;;;;;;;0.50;0.50;;;;;;;0.86;60.58;96798.66;5014219;28;20187;-70
2024/01/30 06:00:52;;;;;;;1.17;1.17;;;;;;;0.86;60.53;96796.06;5040511;28;20576;-70
2024/01/30 06:03:18;;;;;;;1.50;0.73;;;;;;;0.54;60.71;96773.13;5050387;28;20616;-70
2024/01/30 06:05:43;;;;;;;0.50;0.50;;;;;;;0.84;60.04;96797.94;5022316;28;20191;-70
2024/01/30 06:08:09;;;;;;;0.47;0.47;;;;;;;0.92;59.33;96814.63;5049752;28;20629;-70
2024/01/30 06:10:34;;;;;;;1.03;1.03;;;;;;;0.77;59.72;96804.47;5035969;28;20194;-70
2024/01/30 06:13:00;;;;;;;2.67;2.43;;;;;;;0.79;59.40;96803.41;5047387;28;20180;-70
2024/01/30 06:15:25;;;;;;;0.80;0.80;;;;;;;0.94;58.33;96807.59;5049658;28;20636;-70
2024/01/30 06:17:51;;;;;;;1.13;1.10;;;;;;;0.86;58.49;96820.22;5036432;28;20203;-70
2024/01/30 06:20:17;;;;;;;0.50;0.50;;;;;;;0.84;58.71;96816.06;5051521;28;20206;-70
2024/01/30 06:22:43;;;;;;;1.43;0.70;;;;;;;0.85;58.59;96818.56;5039615;28;20222;-70
2024/01/30 06:25:08;;;;;;;0.50;0.50;;;;;;;1.14;57.58;96811.41;5031387;28;20176;-70
2024/01/30 06:27:34;;;;;;;0.97;0.93;;;;;;;1.95;55.83;96811.75;5031309;28;20689;-70
2024/01/30 06:29:59;;;;;;;1.00;1.00;;;;;;;3.14;53.44;96819.38;5046834;28;20541;-70
2024/01/30 06:32:28;;;;;;;3.60;2.00;;;;;;;4.41;48.49;96823.28;5039058;28;20186;-70
2024/01/30 06:34:54;;;;;;;0.50;0.50;;;;;;;5.02;46.66;96820.81;5031973;28;20179;-70
2024/01/30 06:37:19;;;;;;;0.50;0.50;;;;;;;6.53;43.64;96819.03;5032286;28;20570;-70
2024/01/30 06:39:44;;;;;;;1.87;1.80;;;;;;;7.45;40.68;96796.56;5031192;28;20186;-70
2024/01/30 06:42:11;;;;;;;0.50;0.50;;;;;;;8.33;38.77;96811.75;5038950;28;20250;-72
2024/01/30 06:44:37;;;;;;;0.50;0.50;;;;;;;8.70;37.33;96814.25;5051068;28;20225;-71
2024/01/30 06:47:02;;;;;;;0.60;0.60;;;;;;;8.58;37.15;96811.03;5040374;28;20216;-69
2024/01/30 06:49:28;;;;;;;0.40;0.40;;;;;;;8.05;38.45;96803.06;5046658;28;20182;-70
2024/01/30 06:51:53;;;;;;;0.67;0.67;;;;;;;7.85;38.65;96804.16;5047288;28;20538;-70
2024/01/30 06:54:19;;;;;;;0.40;0.40;;;;;;;7.92;38.11;96808.66;5031028;28;20188;-70
2024/01/30 06:56:44;;;;;;;0.50;0.50;;;;;;;6.20;40.95;96815.84;5030818;28;20181;-70
2024/01/30 06:59:09;;;;;;;0.50;0.50;;;;;;;6.51;41.03;96824.41;5038108;28;20209;-70
2024/01/30 07:01:35;;;;;;;0.70;0.70;;;;;;;6.75;40.22;96818.75;5034786;28;20230;-70
2024/01/30 07:04:00;;;;;;;0.40;0.40;;;;;;;6.78;40.63;96824.56;5030741;28;20640;-70
2024/01/30 07:06:26;;;;;;;0.40;0.40;;;;;;;6.99;39.90;96820.97;5031693;28;20633;-70
2024/01/30 07:08:51;;;;;;;0.40;0.40;;;;;;;7.45;39.14;96809.66;5031505;28;20229;-70
2024/01/30 07:11:24;;;;;;;0.43;0.43;;;;;;;7.29;39.00;96822.53;5031589;28;20279;-70
2024/01/30 07:13:54;;;;;;;0.50;0.50;;;;;;;6.86;40.62;96810.78;5032704;28;20194;-70
2024/01/30 07:16:19;;;;;;;0.40;0.40;;;;;;;6.74;40.34;96822.38;5012897;28;20635;-70
2024/01/30 07:18:45;;;;;;;0.40;0.40;;;;;;;7.22;40.71;96811.00;5031240;28;20211;-70
2024/01/30 07:21:11;;;;;;;0.30;0.30;;;;;;;7.71;38.26;96822.97;5041598;28;20599;-70
2024/01/30 07:23:38;;;;;;;0.60;0.60;;;;;;;8.25;37.45;96822.13;5049593;28;20222;-70
2024/01/30 07:26:08;;;;;;;0.50;0.50;;;;;;;9.02;36.10;96824.19;5048521;28;20187;-70
2024/01/30 07:28:34;;;;;;;0.40;0.40;;;;;;;9.86;34.45;96834.91;5050347;28;20182;-70
2024/01/30 07:31:00;;;;;;;0.40;0.40;;;;;;;10.13;33.26;96831.25;5038499;28;20573;-70
2024/01/30 07:33:26;;;;;;;0.40;0.40;;;;;;;9.84;33.74;96829.00;5048555;28;20178;-70
2024/01/30 07:35:54;;;;;;;0.40;0.40;;;;;;;10.63;31.77;96812.84;5030554;28;20186;-70
2024/01/30 07:38:20;;;;;;;0.40;0.40;;;;;;;11.05;31.16;96799.50;5049821;28;20178;-70
2024/01/30 07:40:46;;;;;;;0.50;0.50;;;;;;;11.58;30.38;96820.06;5043715;28;20267;-73
2024/01/30 07:43:11;;;;;;;0.90;0.90;;;;;;;11.72;29.18;96810.59;5031237;28;20178;-70
2024/01/30 07:45:38;;;;;;;0.40;0.40;;;;;;;12.08;30.05;96811.00;5030049;28;20221;-70
2024/01/30 07:48:07;;;;;;;0.40;0.40;;;;;;;13.83;27.21;96817.16;5041565;28;20202;-71
2024/01/30 07:50:33;;;;;;;0.40;0.40;;;;;;;14.00;26.54;96805.38;5049884;28;20167;-71
2024/01/30 07:53:00;;;;;;;0.38;0.38;;;;;;;14.16;26.02;96799.88;5012532;28;20644;-71
2024/01/30 07:55:28;;;;;;;0.50;0.50;;;;;;;15.16;24.54;96799.91;5030839;28;20194;-71
2024/01/30 07:57:54;;;;;;;1.50;1.40;;;;;;;10.39;30.68;96802.22;5031833;28;20182;-71
2024/01/30 08:00:21;;;;;;;0.50;0.50;;;;;;;13.07;28.64;96797.81;5036122;28;20637;-71
2024/01/30 08:02:47;;;;;;;0.50;0.50;;;;;;;14.97;25.74;96809.34;5014618;28;20191;-71
2024/01/30 08:05:15;;;;;;;1.85;0.93;;;;;;;15.26;24.96;96789.78;5041800;28;20179;-71
2024/01/30 08:07:41;;;;;;;0.50;0.50;;;;;;;15.38;25.05;96798.88;5029607;28;20203;-69
2024/01/30 08:10:07;;;;;;;0.40;0.40;;;;;;;15.39;25.42;96805.03;5032806;28;20621;-69
2024/01/30 08:12:33;;;;;;;1.03;1.03;;;;;;;14.99;24.24;96799.34;5034496;28;20178;-69
2024/01/30 08:14:58;;;;;;;0.77;0.63;;;;;;;14.65;24.82;96789.44;5029557;28;20171;-69
2024/01/30 08:17:23;;;;;;;0.50;0.50;;;;;;;14.00;25.90;96802.72;5029504;28;20557;-72
2024/01/30 08:19:49;;;;;;;1.23;1.17;;;;;;;13.80;25.99;96799.78;5011978;28;20222;-71
2024/01/30 08:22:14;;;;;;;0.30;0.30;;;;;;;13.67;26.18;96798.78;5033198;28;20318;-71
2024/01/30 08:24:41;;;;;;;0.40;0.40;;;;;;;13.40;26.62;96790.47;5042277;28;20171;-71
2024/01/30 08:27:09;;;;;;;0.30;0.30;;;;;;;13.17;27.28;96803.72;5040351;28;20281;-71
2024/01/30 08:29:35;;;;;;;0.40;0.40;;;;;;;12.94;27.94;96799.44;5045860;28;20198;-71
2024/01/30 08:32:01;;;;;;;0.60;0.60;;;;;;;12.08;27.87;96787.25;5050702;28;20171;-71
2024/01/30 08:34:27;;;;;;;1.27;0.87;;;;;;;10.90;29.38;96809.88;5045021;28;20188;-71
2024/01/30 08:36:52;;;;;;;0.40;0.40;;;;;;;10.06;31.10;96807.38;5033189;28;20176;-70
2024/01/30 08:39:18;;;;;;;0.50;0.50;;;;;;;9.98;31.84;96798.63;5018008;28;20180;-70
2024/01/30 08:41:43;;;;;;;1.00;1.00;;;;;;;9.12;32.36;96814.44;5029393;28;20183;-70
2024/01/30 08:44:10;;;;;;;0.83;0.77;;;;;;;8.43;34.40;96807.28;5035565;28;20179;-70
2024/01/30 08:46:36;;;;;;;2.13;1.17;;;;;;;7.84;35.03;96798.06;5033935;28;20680;-70
2024/01/30 08:49:02;;;;;;;0.40;0.40;;;;;;;7.99;36.67;96805.44;5039429;28;20185;-70
2024/01/30 08:51:28;;;;;;;0.80;0.80;;;;;;;8.19;35.51;96815.69;5034804;28;20301;-70
2024/01/30 08:53:54;;;;;;;0.40;0.40;;;;;;;8.43;35.93;96817.78;5040114;28;20263;-70
2024/01/30 08:56:19;;;;;;;0.40;0.40;;;;;;;7.70;37.07;96802.94;5032909;28;20188;-70
2024/01/30 08:58:45;;;;;;;0.40;0.40;;;;;;;7.31;37.87;96810.97;5041375;28;20198;-70
2024/01/30 09:01:10;;;;;;;0.60;0.60;;;;;;;7.17;37.66;96819.28;5052542;28;20636;-70
2024/01/30 09:03:39;;;;;;;1.47;1.17;;;;;;;7.02;38.19;96815.44;5038693;28;20179;-70
2024/01/30 09:06:08;;;;;;;0.53;0.50;;;;;;;5.99;40.16;96822.94;5032596;28;20199;-70
2024/01/30 09:08:34;;;;;;;0.90;0.90;;;;;;;5.65;41.75;96833.66;5036859;28;20183;-70
2024/01/30 09:10:59;;;;;;;0.97;0.97;;;;;;;6.39;41.56;96828.13;5050781;28;20198;-70
2024/01/30 09:13:25;;;;;;;0.40;0.40;;;;;;;6.90;41.08;96821.81;5052458;28;20178;-70
2024/01/30 09:15:50;;;;;;;1.77;0.83;;;;;;;6.64;40.69;96832.00;5052405;28;20619;-70
2024/01/30 09:18:16;;;;;;;0.50;0.50;;;;;;;6.28;41.25;96830.88;5052277;28;20178;-70
2024/01/30 09:20:41;;;;;;;0.30;0.30;;;;;;;5.75;42.67;96820.66;5042363;28;20722;-70
2024/01/30 09:23:06;;;;;;;0.67;0.67;;;;;;;5.26;43.62;96826.63;5038353;28;20930;-70
2024/01/30 09:25:32;;;;;;;0.93;0.93;;;;;;;4.67;45.11;96829.78;5033316;28;20653;-70
2024/01/30 09:27:58;;;;;;;0.90;0.73;;;;;;;4.53;46.31;96801.41;5033306;28;20230;-70
2024/01/30 09:30:24;;;;;;;0.40;0.40;;;;;;;4.70;46.32;96807.84;5037199;28;20175;-70
2024/01/30 09:32:49;;;;;;;0.80;0.80;;;;;;;5.32;45.54;96799.97;5032245;28;20190;-70
2024/01/30 09:35:15;;;;;;;3.67;0.93;;;;;;;5.61;44.73;96803.56;5032217;28;20636;-70
2024/01/30 09:37:40;;;;;;;0.63;0.63;;;;;;;5.65;43.57;96801.50;5046949;28;20202;-69
2024/01/30 09:40:07;;;;;;;0.40;0.40;;;;;;;5.32;44.07;96795.59;5052097;28;20737;-69
2024/01/30 09:42:36;;;;;;;0.50;0.50;;;;;;;5.08;43.70;96786.41;5045081;28;20573;-68
2024/01/30 09:45:06;;;;;;;0.57;0.57;;;;;;;5.31;44.05;96808.78;5047919;28;20684;-69
2024/01/30 09:47:39;;;;;;;0.40;0.40;;;;;;;5.05;44.61;96802.31;5036002;28;20207;-68
2024/01/30 09:50:06;;;;;;;0.40;0.40;;;;;;;5.41;44.54;96769.66;5032372;28;20183;-69
2024/01/30 09:52:31;;;;;;;1.33;0.83;;;;;;;5.62;43.26;96773.84;5033312;28;20175;-69
2024/01/30 09:55:00;;;;;;;0.83;0.83;;;;;;;5.95;42.59;96791.03;5043030;28;20622;-68
2024/01/30 09:57:26;;;;;;;0.47;0.47;;;;;;;6.00;43.17;96793.22;5034264;28;20171;-69
2024/01/30 09:59:53;;;;;;;0.47;0.47;;;;;;;6.14;43.21;96802.50;5050357;28;20241;-69
2024/01/30 10:02:19;;;;;;;0.40;0.40;;;;;;;6.36;42.48;96797.84;5036691;28;20557;-69
2024/01/30 10:04:48;;;;;;;0.40;0.40;;;;;;;6.48;41.13;96790.69;5017208;28;20643;-69
2024/01/30 10:07:14;;;;;;;0.67;0.67;;;;;;;6.06;41.21;96774.38;5046546;28;20276;-69
2024/01/30 10:09:40;;;;;;;0.40;0.40;;;;;;;6.16;41.61;96787.47;5040241;28;20195;-69
2024/01/30 10:12:06;;;;;;;0.40;0.40;;;;;;;6.27;41.95;96776.91;5044882;28;20256;-69
2024/01/30 10:14:31;;;;;;;0.40;0.40;;;;;;;6.48;41.27;96780.22;5050987;28;20194;-69
2024/01/30 10:16:58;;;;;;;0.93;0.93;;;;;;;6.37;40.96;96783.78;5051334;28;20656;-68
2024/01/30 10:19:23;;;;;;;0.50;0.50;;;;;;;6.31;41.37;96776.47;5041046;28;20180;-68
2024/01/30 10:21:49;;;;;;;0.70;0.70;;;;;;;5.52;42.20;96790.47;5031346;28;20257;-69
2024/01/30 10:24:15;;;;;;;0.40;0.40;;;;;;;5.07;43.45;96777.75;5031315;28;20234;-68
2024/01/30 10:26:40;;;;;;;0.53;0.53;;;;;;;5.00;43.41;96770.56;5040256;28;20241;-68
2024/01/30 10:29:06;;;;;;;0.40;0.40;;;;;;;4.99;44.59;96779.34;5049819;28;20198;-68
2024/01/30 10:31:31;;;;;;;0.60;0.60;;;;;;;5.11;44.18;96781.72;5050716;28;20614;-69
2024/01/30 10:33:58;;;;;;;0.73;0.73;;;;;;;5.12;43.28;96785.16;5027939;28;20176;-68
2024/01/30 10:36:34;;;;;;;0.50;0.50;;;;;;;4.85;44.08;96755.22;5038223;28;20180;-68
2024/01/30 10:39:00;;;;;;;0.50;0.50;;;;;;;4.71;44.30;96775.59;5049238;28;20537;-68
2024/01/30 10:41:32;;;;;;;0.40;0.40;;;;;;;4.74;44.36;96783.16;5030919;28;20180;-68
2024/01/30 10:44:10;;;;;;;0.40;0.40;;;;;;;4.54;44.71;96730.03;5039221;28;20202;-68
2024/01/30 10:46:38;;;;;;;0.40;0.40;;;;;;;4.85;45.43;96768.25;5032429;28;20292;-68
2024/01/30 10:49:04;;;;;;;0.50;0.50;;;;;;;4.75;44.60;96764.78;5020087;28;20191;-68
2024/01/30 10:51:32;;;;;;;0.90;0.90;;;;;;;4.59;45.10;96771.38;5050208;28;20181;-67
2024/01/30 10:53:58;;;;;;;2.03;1.93;;;;;;;4.42;45.80;96764.94;5047631;28;20720;-68
2024/01/30 10:56:24;;;;;;;0.70;0.70;;;;;;;4.46;45.72;96753.31;5039888;28;20258;-67
2024/01/30 10:58:55;;;;;;;0.40;0.40;;;;;;;4.45;46.71;96746.44;5015702;28;20193;-67
2024/01/30 11:01:22;;;;;;;0.47;0.47;;;;;;;4.44;45.62;96750.00;5047629;28;20185;-68
2024/01/30 11:03:51;;;;;;;0.50;0.50;;;;;;;4.42;46.55;96751.91;5047009;28;20248;-67
2024/01/30 11:06:18;;;;;;;0.40;0.40;;;;;;;4.52;46.04;96743.19;5040277;28;20238;-68
2024/01/30 11:08:44;;;;;;;0.40;0.40;;;;;;;4.71;46.90;96745.13;5037380;28;20298;-68
2024/01/30 11:11:10;;;;;;;0.40;0.40;;;;;;;4.92;46.38;96734.69;5042678;28;20194;-68
2024/01/30 11:13:36;;;;;;;0.70;0.70;;;;;;;4.82;46.32;96739.84;5048249;28;20186;-68
2024/01/30 11:16:02;;;;;;;0.40;0.40;;;;;;;4.87;46.39;96724.59;5048705;28;20182;-68
2024/01/30 11:18:33;;;;;;;0.77;0.77;;;;;;;5.03;45.60;96725.91;5049602;28;20170;-68
2024/01/30 11:21:02;;;;;;;0.40;0.40;;;;;;;4.90;45.14;96734.78;5050450;28;20183;-67
2024/01/30 11:23:28;;;;;;;1.13;1.03;;;;;;;4.41;45.73;96705.94;5049596;28;20708;-68
2024/01/30 11:25:54;;;;;;;0.40;0.40;;;;;;;4.77;45.23;96736.75;5050221;28;20183;-68
2024/01/30 11:28:22;;;;;;;0.40;0.40;;;;;;;4.57;46.41;96728.97;5050230;28;20355;-68
2024/01/30 11:30:50;;;;;;;0.40;0.40;;;;;;;4.76;46.91;96724.69;5050207;28;20225;-68
2024/01/30 11:33:33;;;;;;;0.50;0.50;;;;;;;4.85;45.78;96723.91;5050229;28;20175;-67
2024/01/30 11:36:00;;;;;;;0.40;0.40;;;;;;;4.96;45.09;96727.41;5048409;28;20183;-67